sensor_id;sensor_type;location;lat;lon;timestamp;temperature;humidity
75987;DHT22;75291;44.670;37.810;2024-01-10T00:01:02;-4.79;69.84
75987;DHT22;75291;44.670;37.810;2024-01-10T00:02:06;-4.79;67.06
75987;DHT22;75291;44.670;37.810;2024-01-10T00:03:11;-4.73;70.78
75987;DHT22;75291;44.670;37.810;2024-01-10T00:04:16;-4.69;66.53
75987;DHT22;75291;44.670;37.810;2024-01-10T00:05:22;-4.68;62.24
75987;DHT22;75291;44.670;37.810;2024-01-10T00:06:26;-4.67;62.24
75987;DHT22;75291;44.670;37.810;2024-01-10T00:07:30;-4.69;61.68
75987;DHT22;75291;44.670;37.810;2024-01-10T00:08:35;-4.65;63.43
75987;DHT22;75291;44.670;37.810;2024-01-10T00:09:39;-4.59;60.64
75987;DHT22;75291;44.670;37.810;2024-01-10T00:10:43;-4.55;61.31
75987;DHT22;75291;44.670;37.810;2024-01-10T00:11:48;-4.56;62.57
75987;DHT22;75291;44.670;37.810;2024-01-10T00:12:52;-4.51;64.01
75987;DHT22;75291;44.670;37.810;2024-01-10T00:13:57;-4.49;62.32
75987;DHT22;75291;44.670;37.810;2024-01-10T00:15:04;-4.45;62.92
75987;DHT22;75291;44.670;37.810;2024-01-10T00:16:13;-4.43;65.07
75987;DHT22;75291;44.670;37.810;2024-01-10T00:17:18;-4.44;62.28
75987;DHT22;75291;44.670;37.810;2024-01-10T00:18:22;-4.50;59.42
75987;DHT22;75291;44.670;37.810;2024-01-10T00:19:27;-4.49;62.19
75987;DHT22;75291;44.670;37.810;2024-01-10T00:20:31;-4.50;59.45
75987;DHT22;75291;44.670;37.810;2024-01-10T00:21:36;-4.46;64.10
75987;DHT22;75291;44.670;37.810;2024-01-10T00:22:40;-4.45;64.96
75987;DHT22;75291;44.670;37.810;2024-01-10T00:23:44;-4.41;62.92
75987;DHT22;75291;44.670;37.810;2024-01-10T00:24:49;-4.41;58.53
75987;DHT22;75291;44.670;37.810;2024-01-10T00:25:54;-4.39;60.60
75987;DHT22;75291;44.670;37.810;2024-01-10T00:26:58;-4.41;60.17
75987;DHT22;75291;44.670;37.810;2024-01-10T00:28:04;-4.37;63.75
75987;DHT22;75291;44.670;37.810;2024-01-10T00:29:08;-4.38;62.48
75987;DHT22;75291;44.670;37.810;2024-01-10T00:30:15;-4.41;56.53
75987;DHT22;75291;44.670;37.810;2024-01-10T00:31:21;-4.49;59.12
75987;DHT22;75291;44.670;37.810;2024-01-10T00:32:25;-4.48;62.31
75987;DHT22;75291;44.670;37.810;2024-01-10T00:33:29;-4.45;63.62
75987;DHT22;75291;44.670;37.810;2024-01-10T00:34:33;-4.46;58.55
75987;DHT22;75291;44.670;37.810;2024-01-10T00:35:38;-4.46;59.97
75987;DHT22;75291;44.670;37.810;2024-01-10T00:36:43;-4.42;66.78
75987;DHT22;75291;44.670;37.810;2024-01-10T00:37:47;-4.43;68.37
75987;DHT22;75291;44.670;37.810;2024-01-10T00:38:51;-4.53;61.80
75987;DHT22;75291;44.670;37.810;2024-01-10T00:39:55;-4.58;64.44
75987;DHT22;75291;44.670;37.810;2024-01-10T00:41:00;-4.61;59.64
75987;DHT22;75291;44.670;37.810;2024-01-10T00:42:04;-4.59;63.64
75987;DHT22;75291;44.670;37.810;2024-01-10T00:43:09;-4.56;68.26
75987;DHT22;75291;44.670;37.810;2024-01-10T00:44:14;-4.54;68.99
75987;DHT22;75291;44.670;37.810;2024-01-10T00:45:18;-4.55;66.62
75987;DHT22;75291;44.670;37.810;2024-01-10T00:46:22;-4.59;60.47
75987;DHT22;75291;44.670;37.810;2024-01-10T00:47:26;-4.60;65.01
75987;DHT22;75291;44.670;37.810;2024-01-10T00:48:31;-4.58;69.28
75987;DHT22;75291;44.670;37.810;2024-01-10T00:49:35;-4.60;68.54
75987;DHT22;75291;44.670;37.810;2024-01-10T00:50:40;-4.58;69.47
75987;DHT22;75291;44.670;37.810;2024-01-10T00:51:44;-4.60;63.04
75987;DHT22;75291;44.670;37.810;2024-01-10T00:52:50;-4.58;64.30
75987;DHT22;75291;44.670;37.810;2024-01-10T00:53:54;-4.57;64.02
75987;DHT22;75291;44.670;37.810;2024-01-10T00:54:58;-4.57;62.79
75987;DHT22;75291;44.670;37.810;2024-01-10T00:56:02;-4.65;66.04
75987;DHT22;75291;44.670;37.810;2024-01-10T00:57:07;-4.64;68.30
75987;DHT22;75291;44.670;37.810;2024-01-10T00:58:11;-4.61;65.33
75987;DHT22;75291;44.670;37.810;2024-01-10T00:59:16;-4.59;70.32
75987;DHT22;75291;44.670;37.810;2024-01-10T01:00:20;-4.60;67.83
75987;DHT22;75291;44.670;37.810;2024-01-10T01:01:24;-4.56;65.46
75987;DHT22;75291;44.670;37.810;2024-01-10T01:02:32;-4.52;64.43
75987;DHT22;75291;44.670;37.810;2024-01-10T01:03:36;-4.48;65.04
75987;DHT22;75291;44.670;37.810;2024-01-10T01:04:41;-4.46;59.93
75987;DHT22;75291;44.670;37.810;2024-01-10T01:05:46;-4.43;61.68
75987;DHT22;75291;44.670;37.810;2024-01-10T01:06:50;-4.36;66.39
75987;DHT22;75291;44.670;37.810;2024-01-10T01:07:54;-4.42;62.72
75987;DHT22;75291;44.670;37.810;2024-01-10T01:08:58;-4.53;60.89
75987;DHT22;75291;44.670;37.810;2024-01-10T01:10:03;-4.65;58.54
75987;DHT22;75291;44.670;37.810;2024-01-10T01:11:07;-4.68;63.56
75987;DHT22;75291;44.670;37.810;2024-01-10T01:12:11;-4.72;64.00
75987;DHT22;75291;44.670;37.810;2024-01-10T01:13:16;-4.61;57.39
75987;DHT22;75291;44.670;37.810;2024-01-10T01:14:21;-4.53;56.45
75987;DHT22;75291;44.670;37.810;2024-01-10T01:15:25;-4.49;57.76
75987;DHT22;75291;44.670;37.810;2024-01-10T01:16:29;-4.39;66.22
75987;DHT22;75291;44.670;37.810;2024-01-10T01:17:34;-4.34;63.38
75987;DHT22;75291;44.670;37.810;2024-01-10T01:18:38;-4.36;61.61
75987;DHT22;75291;44.670;37.810;2024-01-10T01:19:42;-4.43;61.45
75987;DHT22;75291;44.670;37.810;2024-01-10T01:20:47;-4.43;64.70
75987;DHT22;75291;44.670;37.810;2024-01-10T01:21:52;-4.43;67.38
75987;DHT22;75291;44.670;37.810;2024-01-10T01:22:56;-4.50;65.07
75987;DHT22;75291;44.670;37.810;2024-01-10T01:24:00;-4.49;69.76
75987;DHT22;75291;44.670;37.810;2024-01-10T01:25:05;-4.53;69.77
75987;DHT22;75291;44.670;37.810;2024-01-10T01:26:09;-4.66;65.11
75987;DHT22;75291;44.670;37.810;2024-01-10T01:27:13;-4.68;66.53
75987;DHT22;75291;44.670;37.810;2024-01-10T01:28:17;-4.78;64.63
75987;DHT22;75291;44.670;37.810;2024-01-10T01:29:22;-4.79;67.28
75987;DHT22;75291;44.670;37.810;2024-01-10T01:30:26;-4.75;69.80
75987;DHT22;75291;44.670;37.810;2024-01-10T01:31:31;-4.78;64.76
75987;DHT22;75291;44.670;37.810;2024-01-10T01:32:35;-4.80;64.15
75987;DHT22;75291;44.670;37.810;2024-01-10T01:33:39;-4.84;64.44
75987;DHT22;75291;44.670;37.810;2024-01-10T01:34:45;-4.87;67.10
75987;DHT22;75291;44.670;37.810;2024-01-10T01:35:49;-4.80;71.48
75987;DHT22;75291;44.670;37.810;2024-01-10T01:36:54;-4.71;75.31
75987;DHT22;75291;44.670;37.810;2024-01-10T01:37:59;-4.71;69.56
75987;DHT22;75291;44.670;37.810;2024-01-10T01:39:04;-4.66;70.86
75987;DHT22;75291;44.670;37.810;2024-01-10T01:40:08;-4.63;70.73
75987;DHT22;75291;44.670;37.810;2024-01-10T01:41:13;-4.59;70.00
75987;DHT22;75291;44.670;37.810;2024-01-10T01:42:19;-4.55;73.59
75987;DHT22;75291;44.670;37.810;2024-01-10T01:43:25;-4.56;69.48
75987;DHT22;75291;44.670;37.810;2024-01-10T01:44:29;-4.59;69.43
75987;DHT22;75291;44.670;37.810;2024-01-10T01:45:35;-4.63;69.49
75987;DHT22;75291;44.670;37.810;2024-01-10T01:46:39;-4.64;69.74
75987;DHT22;75291;44.670;37.810;2024-01-10T01:47:47;-4.63;69.64
75987;DHT22;75291;44.670;37.810;2024-01-10T01:48:51;-4.71;64.85
75987;DHT22;75291;44.670;37.810;2024-01-10T01:49:56;-4.80;63.94
75987;DHT22;75291;44.670;37.810;2024-01-10T01:51:04;-4.82;65.53
75987;DHT22;75291;44.670;37.810;2024-01-10T01:52:10;-4.82;66.24
75987;DHT22;75291;44.670;37.810;2024-01-10T01:53:15;-4.87;65.75
75987;DHT22;75291;44.670;37.810;2024-01-10T01:54:19;-4.88;66.56
75987;DHT22;75291;44.670;37.810;2024-01-10T01:55:24;-4.84;68.52
75987;DHT22;75291;44.670;37.810;2024-01-10T01:56:28;-4.85;67.23
75987;DHT22;75291;44.670;37.810;2024-01-10T01:57:33;-4.86;66.47
75987;DHT22;75291;44.670;37.810;2024-01-10T01:58:38;-4.90;64.85
75987;DHT22;75291;44.670;37.810;2024-01-10T01:59:43;-4.98;64.30
75987;DHT22;75291;44.670;37.810;2024-01-10T02:00:48;-5.05;64.16
75987;DHT22;75291;44.670;37.810;2024-01-10T02:01:54;-5.10;64.43
75987;DHT22;75291;44.670;37.810;2024-01-10T02:03:01;-5.11;65.59
75987;DHT22;75291;44.670;37.810;2024-01-10T02:04:06;-5.13;65.19
75987;DHT22;75291;44.670;37.810;2024-01-10T02:05:10;-5.10;68.48
75987;DHT22;75291;44.670;37.810;2024-01-10T02:06:14;-5.07;68.39
75987;DHT22;75291;44.670;37.810;2024-01-10T02:07:19;-5.03;68.19
75987;DHT22;75291;44.670;37.810;2024-01-10T02:08:23;-5.02;67.17
75987;DHT22;75291;44.670;37.810;2024-01-10T02:09:27;-5.05;66.22
75987;DHT22;75291;44.670;37.810;2024-01-10T02:10:31;-5.01;67.44
75987;DHT22;75291;44.670;37.810;2024-01-10T02:11:36;-5.00;66.90
75987;DHT22;75291;44.670;37.810;2024-01-10T02:12:40;-4.99;65.98
75987;DHT22;75291;44.670;37.810;2024-01-10T02:13:45;-5.00;64.91
75987;DHT22;75291;44.670;37.810;2024-01-10T02:14:49;-4.98;66.85
75987;DHT22;75291;44.670;37.810;2024-01-10T02:15:54;-4.96;68.27
75987;DHT22;75291;44.670;37.810;2024-01-10T02:16:58;-4.93;66.30
75987;DHT22;75291;44.670;37.810;2024-01-10T02:18:02;-4.91;67.85
75987;DHT22;75291;44.670;37.810;2024-01-10T02:19:20;-4.91;66.78
75987;DHT22;75291;44.670;37.810;2024-01-10T02:20:25;-4.91;67.94
75987;DHT22;75291;44.670;37.810;2024-01-10T03:45:56;-5.58;70.49
75987;DHT22;75291;44.670;37.810;2024-01-10T03:47:00;-5.57;70.11
75987;DHT22;75291;44.670;37.810;2024-01-10T03:48:03;-5.55;70.63
75987;DHT22;75291;44.670;37.810;2024-01-10T03:49:07;-5.57;70.32
75987;DHT22;75291;44.670;37.810;2024-01-10T03:50:11;-5.54;71.75
75987;DHT22;75291;44.670;37.810;2024-01-10T03:51:15;-5.55;72.01
75987;DHT22;75291;44.670;37.810;2024-01-10T03:52:19;-5.55;72.29
75987;DHT22;75291;44.670;37.810;2024-01-10T03:53:23;-5.55;72.41
75987;DHT22;75291;44.670;37.810;2024-01-10T03:54:26;-5.55;71.75
75987;DHT22;75291;44.670;37.810;2024-01-10T03:55:29;-5.56;71.80
75987;DHT22;75291;44.670;37.810;2024-01-10T03:56:33;-5.56;71.19
75987;DHT22;75291;44.670;37.810;2024-01-10T03:57:36;-5.52;71.23
75987;DHT22;75291;44.670;37.810;2024-01-10T03:58:40;-5.50;71.95
75987;DHT22;75291;44.670;37.810;2024-01-10T03:59:43;-5.53;70.77
75987;DHT22;75291;44.670;37.810;2024-01-10T04:00:47;-5.53;71.12
75987;DHT22;75291;44.670;37.810;2024-01-10T04:01:50;-5.57;70.07
75987;DHT22;75291;44.670;37.810;2024-01-10T04:02:54;-5.53;71.11
75987;DHT22;75291;44.670;37.810;2024-01-10T04:03:57;-5.54;71.58
75987;DHT22;75291;44.670;37.810;2024-01-10T04:05:00;-5.54;71.10
75987;DHT22;75291;44.670;37.810;2024-01-10T04:06:04;-5.53;71.87
75987;DHT22;75291;44.670;37.810;2024-01-10T04:07:08;-5.53;71.14
75987;DHT22;75291;44.670;37.810;2024-01-10T04:08:12;-5.54;72.13
75987;DHT22;75291;44.670;37.810;2024-01-10T04:09:16;-5.52;72.32
75987;DHT22;75291;44.670;37.810;2024-01-10T04:10:19;-5.53;71.74
75987;DHT22;75291;44.670;37.810;2024-01-10T04:11:24;-5.53;72.09
75987;DHT22;75291;44.670;37.810;2024-01-10T04:12:27;-5.53;72.06
75987;DHT22;75291;44.670;37.810;2024-01-10T04:13:31;-5.49;73.06
75987;DHT22;75291;44.670;37.810;2024-01-10T04:14:34;-5.49;72.57
75987;DHT22;75291;44.670;37.810;2024-01-10T04:15:38;-5.47;72.72
75987;DHT22;75291;44.670;37.810;2024-01-10T04:16:41;-5.46;71.80
75987;DHT22;75291;44.670;37.810;2024-01-10T04:17:45;-5.47;70.82
75987;DHT22;75291;44.670;37.810;2024-01-10T04:18:48;-5.46;70.35
75987;DHT22;75291;44.670;37.810;2024-01-10T04:19:52;-5.45;70.03
75987;DHT22;75291;44.670;37.810;2024-01-10T04:20:55;-5.43;70.48
75987;DHT22;75291;44.670;37.810;2024-01-10T04:21:59;-5.40;70.93
75987;DHT22;75291;44.670;37.810;2024-01-10T04:23:03;-5.39;70.44
75987;DHT22;75291;44.670;37.810;2024-01-10T04:24:06;-5.41;70.03
75987;DHT22;75291;44.670;37.810;2024-01-10T04:25:11;-5.40;71.06
75987;DHT22;75291;44.670;37.810;2024-01-10T04:26:14;-5.42;70.44
75987;DHT22;75291;44.670;37.810;2024-01-10T04:27:18;-5.43;70.49
75987;DHT22;75291;44.670;37.810;2024-01-10T04:28:21;-5.43;70.76
75987;DHT22;75291;44.670;37.810;2024-01-10T04:29:25;-5.44;69.85
75987;DHT22;75291;44.670;37.810;2024-01-10T04:30:31;-5.44;69.49
75987;DHT22;75291;44.670;37.810;2024-01-10T04:31:35;-5.43;70.28
75987;DHT22;75291;44.670;37.810;2024-01-10T04:32:38;-5.45;70.74
75987;DHT22;75291;44.670;37.810;2024-01-10T04:33:41;-5.44;70.99
75987;DHT22;75291;44.670;37.810;2024-01-10T04:34:45;-5.46;69.26
75987;DHT22;75291;44.670;37.810;2024-01-10T04:35:48;-5.45;70.16
75987;DHT22;75291;44.670;37.810;2024-01-10T04:36:51;-5.44;70.23
75987;DHT22;75291;44.670;37.810;2024-01-10T04:37:54;-5.44;70.44
75987;DHT22;75291;44.670;37.810;2024-01-10T04:38:58;-5.43;69.73
75987;DHT22;75291;44.670;37.810;2024-01-10T04:40:01;-5.42;70.90
75987;DHT22;75291;44.670;37.810;2024-01-10T04:41:05;-5.41;70.91
75987;DHT22;75291;44.670;37.810;2024-01-10T04:42:10;-5.41;70.72
75987;DHT22;75291;44.670;37.810;2024-01-10T04:43:13;-5.43;70.16
75987;DHT22;75291;44.670;37.810;2024-01-10T04:44:17;-5.42;70.74
75987;DHT22;75291;44.670;37.810;2024-01-10T04:45:20;-5.43;70.68
75987;DHT22;75291;44.670;37.810;2024-01-10T04:46:23;-5.45;70.17
75987;DHT22;75291;44.670;37.810;2024-01-10T04:47:26;-5.48;70.11
75987;DHT22;75291;44.670;37.810;2024-01-10T04:48:29;-5.49;70.30
75987;DHT22;75291;44.670;37.810;2024-01-10T04:49:32;-5.55;70.44
75987;DHT22;75291;44.670;37.810;2024-01-10T04:50:36;-5.60;69.31
75987;DHT22;75291;44.670;37.810;2024-01-10T04:51:39;-5.63;69.07
75987;DHT22;75291;44.670;37.810;2024-01-10T04:52:42;-5.67;70.22
75987;DHT22;75291;44.670;37.810;2024-01-10T04:53:45;-5.68;70.52
75987;DHT22;75291;44.670;37.810;2024-01-10T04:54:48;-5.67;71.49
75987;DHT22;75291;44.670;37.810;2024-01-10T04:55:52;-5.70;69.68
75987;DHT22;75291;44.670;37.810;2024-01-10T04:56:56;-5.69;71.23
75987;DHT22;75291;44.670;37.810;2024-01-10T04:57:59;-5.72;69.46
75987;DHT22;75291;44.670;37.810;2024-01-10T04:59:03;-5.70;70.81
75987;DHT22;75291;44.670;37.810;2024-01-10T05:00:06;-5.71;71.42
75987;DHT22;75291;44.670;37.810;2024-01-10T05:01:10;-5.71;70.98
75987;DHT22;75291;44.670;37.810;2024-01-10T05:02:13;-5.67;71.50
75987;DHT22;75291;44.670;37.810;2024-01-10T05:03:16;-5.64;71.10
75987;DHT22;75291;44.670;37.810;2024-01-10T05:04:19;-5.61;71.55
75987;DHT22;75291;44.670;37.810;2024-01-10T05:05:23;-5.60;71.63
75987;DHT22;75291;44.670;37.810;2024-01-10T05:06:26;-5.62;70.68
75987;DHT22;75291;44.670;37.810;2024-01-10T05:07:30;-5.62;71.55
75987;DHT22;75291;44.670;37.810;2024-01-10T05:08:33;-5.56;74.12
75987;DHT22;75291;44.670;37.810;2024-01-10T05:09:36;-5.52;73.35
75987;DHT22;75291;44.670;37.810;2024-01-10T05:10:39;-5.52;72.13
75987;DHT22;75291;44.670;37.810;2024-01-10T05:11:43;-5.53;70.99
75987;DHT22;75291;44.670;37.810;2024-01-10T05:12:50;-5.49;71.79
75987;DHT22;75291;44.670;37.810;2024-01-10T05:13:53;-5.45;70.88
75987;DHT22;75291;44.670;37.810;2024-01-10T05:14:56;-5.43;71.20
75987;DHT22;75291;44.670;37.810;2024-01-10T05:15:59;-5.41;71.84
75987;DHT22;75291;44.670;37.810;2024-01-10T05:17:03;-5.35;71.55
75987;DHT22;75291;44.670;37.810;2024-01-10T05:18:06;-5.30;71.52
75987;DHT22;75291;44.670;37.810;2024-01-10T05:19:09;-5.24;71.17
75987;DHT22;75291;44.670;37.810;2024-01-10T05:20:13;-5.16;71.65
75987;DHT22;75291;44.670;37.810;2024-01-10T05:21:16;-5.11;71.04
75987;DHT22;75291;44.670;37.810;2024-01-10T05:22:19;-5.04;71.13
75987;DHT22;75291;44.670;37.810;2024-01-10T05:23:24;-4.99;70.95
75987;DHT22;75291;44.670;37.810;2024-01-10T05:24:27;-4.97;68.84
75987;DHT22;75291;44.670;37.810;2024-01-10T05:25:30;-4.89;69.72
75987;DHT22;75291;44.670;37.810;2024-01-10T05:26:34;-4.90;68.15
75987;DHT22;75291;44.670;37.810;2024-01-10T05:27:37;-4.84;69.97
75987;DHT22;75291;44.670;37.810;2024-01-10T05:28:41;-4.72;70.65
75987;DHT22;75291;44.670;37.810;2024-01-10T05:29:44;-4.63;70.67
75987;DHT22;75291;44.670;37.810;2024-01-10T05:30:49;-4.56;68.60
75987;DHT22;75291;44.670;37.810;2024-01-10T05:31:52;-4.55;67.82
75987;DHT22;75291;44.670;37.810;2024-01-10T05:32:55;-4.45;68.26
75987;DHT22;75291;44.670;37.810;2024-01-10T05:33:59;-4.37;68.36
75987;DHT22;75291;44.670;37.810;2024-01-10T05:35:02;-4.26;68.60
75987;DHT22;75291;44.670;37.810;2024-01-10T05:36:06;-4.20;67.85
75987;DHT22;75291;44.670;37.810;2024-01-10T05:37:09;-4.17;66.32
75987;DHT22;75291;44.670;37.810;2024-01-10T05:38:12;-4.10;67.33
75987;DHT22;75291;44.670;37.810;2024-01-10T05:39:16;-3.98;67.63
75987;DHT22;75291;44.670;37.810;2024-01-10T05:40:19;-3.91;67.28
75987;DHT22;75291;44.670;37.810;2024-01-10T05:41:23;-3.82;66.55
75987;DHT22;75291;44.670;37.810;2024-01-10T05:42:27;-3.75;65.52
75987;DHT22;75291;44.670;37.810;2024-01-10T05:43:31;-3.67;64.94
75987;DHT22;75291;44.670;37.810;2024-01-10T05:44:34;-3.62;64.96
75987;DHT22;75291;44.670;37.810;2024-01-10T05:45:38;-3.54;63.75
75987;DHT22;75291;44.670;37.810;2024-01-10T05:46:41;-3.52;63.60
75987;DHT22;75291;44.670;37.810;2024-01-10T05:47:45;-3.43;63.44
75987;DHT22;75291;44.670;37.810;2024-01-10T05:48:49;-3.40;62.86
75987;DHT22;75291;44.670;37.810;2024-01-10T05:49:52;-3.37;62.29
75987;DHT22;75291;44.670;37.810;2024-01-10T05:50:55;-3.32;62.09
75987;DHT22;75291;44.670;37.810;2024-01-10T05:51:59;-3.26;61.41
75987;DHT22;75291;44.670;37.810;2024-01-10T05:53:02;-3.21;61.17
75987;DHT22;75291;44.670;37.810;2024-01-10T05:54:06;-3.13;60.80
75987;DHT22;75291;44.670;37.810;2024-01-10T05:55:10;-3.07;61.12
75987;DHT22;75291;44.670;37.810;2024-01-10T05:56:13;-2.98;60.57
75987;DHT22;75291;44.670;37.810;2024-01-10T05:57:17;-2.88;61.52
75987;DHT22;75291;44.670;37.810;2024-01-10T05:58:21;-2.79;60.73
75987;DHT22;75291;44.670;37.810;2024-01-10T05:59:24;-2.71;59.80
75987;DHT22;75291;44.670;37.810;2024-01-10T06:00:31;-2.59;60.10
75987;DHT22;75291;44.670;37.810;2024-01-10T06:01:34;-2.50;59.77
75987;DHT22;75291;44.670;37.810;2024-01-10T06:02:41;-2.42;59.33
75987;DHT22;75291;44.670;37.810;2024-01-10T06:03:44;-2.39;57.93
75987;DHT22;75291;44.670;37.810;2024-01-10T06:04:47;-2.33;58.89
75987;DHT22;75291;44.670;37.810;2024-01-10T06:05:51;-2.27;58.86
75987;DHT22;75291;44.670;37.810;2024-01-10T06:06:54;-2.19;58.83
75987;DHT22;75291;44.670;37.810;2024-01-10T06:07:57;-2.12;59.67
75987;DHT22;75291;44.670;37.810;2024-01-10T06:09:00;-2.14;57.34
75987;DHT22;75291;44.670;37.810;2024-01-10T06:10:04;-2.14;56.74
75987;DHT22;75291;44.670;37.810;2024-01-10T06:11:08;-2.04;58.12
75987;DHT22;75291;44.670;37.810;2024-01-10T06:12:12;-1.95;59.10
75987;DHT22;75291;44.670;37.810;2024-01-10T06:13:15;-1.95;58.34
75987;DHT22;75291;44.670;37.810;2024-01-10T06:14:18;-1.94;56.95
75987;DHT22;75291;44.670;37.810;2024-01-10T06:15:22;-1.98;56.93
75987;DHT22;75291;44.670;37.810;2024-01-10T06:16:25;-1.92;57.29
75987;DHT22;75291;44.670;37.810;2024-01-10T06:17:28;-1.89;57.55
75987;DHT22;75291;44.670;37.810;2024-01-10T06:18:32;-1.88;55.55
75987;DHT22;75291;44.670;37.810;2024-01-10T06:19:35;-1.78;57.77
75987;DHT22;75291;44.670;37.810;2024-01-10T06:20:38;-1.70;56.77
75987;DHT22;75291;44.670;37.810;2024-01-10T06:21:42;-1.67;56.87
75987;DHT22;75291;44.670;37.810;2024-01-10T06:22:45;-1.61;55.91
75987;DHT22;75291;44.670;37.810;2024-01-10T06:23:49;-1.59;56.53
75987;DHT22;75291;44.670;37.810;2024-01-10T06:24:52;-1.53;57.22
75987;DHT22;75291;44.670;37.810;2024-01-10T06:25:56;-1.52;55.34
75987;DHT22;75291;44.670;37.810;2024-01-10T06:26:59;-1.46;57.13
75987;DHT22;75291;44.670;37.810;2024-01-10T06:28:02;-1.45;57.90
75987;DHT22;75291;44.670;37.810;2024-01-10T06:29:06;-1.35;57.03
75987;DHT22;75291;44.670;37.810;2024-01-10T06:30:09;-1.30;55.96
75987;DHT22;75291;44.670;37.810;2024-01-10T06:31:15;-1.33;54.36
75987;DHT22;75291;44.670;37.810;2024-01-10T06:32:19;-1.31;55.23
75987;DHT22;75291;44.670;37.810;2024-01-10T06:33:22;-1.33;54.36
75987;DHT22;75291;44.670;37.810;2024-01-10T06:34:29;-1.33;54.95
75987;DHT22;75291;44.670;37.810;2024-01-10T06:35:32;-1.29;55.90
75987;DHT22;75291;44.670;37.810;2024-01-10T06:36:37;-1.27;56.10
75987;DHT22;75291;44.670;37.810;2024-01-10T06:37:41;-1.26;55.31
75987;DHT22;75291;44.670;37.810;2024-01-10T06:38:47;-1.25;54.97
75987;DHT22;75291;44.670;37.810;2024-01-10T06:39:50;-1.17;55.83
75987;DHT22;75291;44.670;37.810;2024-01-10T06:40:54;-1.09;55.49
75987;DHT22;75291;44.670;37.810;2024-01-10T06:41:57;-1.10;54.55
75987;DHT22;75291;44.670;37.810;2024-01-10T06:43:00;-1.01;56.82
75987;DHT22;75291;44.670;37.810;2024-01-10T06:44:04;-0.98;54.92
75987;DHT22;75291;44.670;37.810;2024-01-10T06:45:07;-0.94;54.86
75987;DHT22;75291;44.670;37.810;2024-01-10T06:46:11;-0.86;55.75
75987;DHT22;75291;44.670;37.810;2024-01-10T06:47:14;-0.84;54.70
75987;DHT22;75291;44.670;37.810;2024-01-10T06:48:18;-0.71;55.94
75987;DHT22;75291;44.670;37.810;2024-01-10T06:49:21;-0.62;55.51
75987;DHT22;75291;44.670;37.810;2024-01-10T06:50:25;-0.52;55.40
75987;DHT22;75291;44.670;37.810;2024-01-10T06:51:28;-0.45;54.20
75987;DHT22;75291;44.670;37.810;2024-01-10T06:52:31;-0.39;53.55
75987;DHT22;75291;44.670;37.810;2024-01-10T06:53:35;-0.31;52.53
75987;DHT22;75291;44.670;37.810;2024-01-10T06:54:38;-0.25;53.92
75987;DHT22;75291;44.670;37.810;2024-01-10T06:55:41;-0.15;52.37
75987;DHT22;75291;44.670;37.810;2024-01-10T06:56:44;-0.11;52.67
75987;DHT22;75291;44.670;37.810;2024-01-10T06:57:49;-0.10;51.48
75987;DHT22;75291;44.670;37.810;2024-01-10T06:58:54;-0.06;52.25
75987;DHT22;75291;44.670;37.810;2024-01-10T06:59:57;-0.08;51.00
75987;DHT22;75291;44.670;37.810;2024-01-10T07:01:01;-0.08;51.15
75987;DHT22;75291;44.670;37.810;2024-01-10T07:02:07;-0.12;52.06
75987;DHT22;75291;44.670;37.810;2024-01-10T07:03:10;-0.11;51.75
75987;DHT22;75291;44.670;37.810;2024-01-10T07:04:14;-0.25;52.50
75987;DHT22;75291;44.670;37.810;2024-01-10T07:05:18;-0.19;52.18
75987;DHT22;75291;44.670;37.810;2024-01-10T07:06:23;-0.20;52.82
75987;DHT22;75291;44.670;37.810;2024-01-10T07:07:26;-0.21;52.58
75987;DHT22;75291;44.670;37.810;2024-01-10T07:08:29;-0.23;53.73
75987;DHT22;75291;44.670;37.810;2024-01-10T07:09:33;-0.15;53.56
75987;DHT22;75291;44.670;37.810;2024-01-10T07:10:36;-0.03;52.87
75987;DHT22;75291;44.670;37.810;2024-01-10T07:11:41;0.06;53.01
75987;DHT22;75291;44.670;37.810;2024-01-10T07:12:44;0.18;53.46
75987;DHT22;75291;44.670;37.810;2024-01-10T07:13:47;0.29;52.30
75987;DHT22;75291;44.670;37.810;2024-01-10T07:14:51;0.38;52.14
75987;DHT22;75291;44.670;37.810;2024-01-10T07:15:54;0.52;52.31
75987;DHT22;75291;44.670;37.810;2024-01-10T07:16:58;0.58;51.93
75987;DHT22;75291;44.670;37.810;2024-01-10T07:18:01;0.61;50.91
75987;DHT22;75291;44.670;37.810;2024-01-10T07:19:05;0.67;51.61
75987;DHT22;75291;44.670;37.810;2024-01-10T07:20:08;0.71;50.59
75987;DHT22;75291;44.670;37.810;2024-01-10T07:21:14;0.74;51.01
75987;DHT22;75291;44.670;37.810;2024-01-10T07:22:17;0.82;51.48
75987;DHT22;75291;44.670;37.810;2024-01-10T07:23:21;0.91;52.15
75987;DHT22;75291;44.670;37.810;2024-01-10T07:24:25;1.04;51.71
75987;DHT22;75291;44.670;37.810;2024-01-10T07:25:28;1.12;50.37
75987;DHT22;75291;44.670;37.810;2024-01-10T07:26:32;1.08;50.49
75987;DHT22;75291;44.670;37.810;2024-01-10T07:27:36;1.09;49.94
75987;DHT22;75291;44.670;37.810;2024-01-10T07:28:42;1.13;51.23
75987;DHT22;75291;44.670;37.810;2024-01-10T07:29:45;1.13;50.24
75987;DHT22;75291;44.670;37.810;2024-01-10T07:30:49;1.18;50.72
75987;DHT22;75291;44.670;37.810;2024-01-10T07:31:52;1.24;51.52
75987;DHT22;75291;44.670;37.810;2024-01-10T07:32:55;1.29;51.53
75987;DHT22;75291;44.670;37.810;2024-01-10T07:33:58;1.41;50.95
75987;DHT22;75291;44.670;37.810;2024-01-10T07:35:02;1.56;49.65
75987;DHT22;75291;44.670;37.810;2024-01-10T07:36:05;1.58;48.38
75987;DHT22;75291;44.670;37.810;2024-01-10T07:37:08;1.68;48.81
75987;DHT22;75291;44.670;37.810;2024-01-10T07:38:13;1.72;49.26
75987;DHT22;75291;44.670;37.810;2024-01-10T07:39:17;1.83;50.16
75987;DHT22;75291;44.670;37.810;2024-01-10T07:40:23;1.95;48.89
75987;DHT22;75291;44.670;37.810;2024-01-10T07:41:26;2.07;48.18
75987;DHT22;75291;44.670;37.810;2024-01-10T07:42:31;2.10;49.14
75987;DHT22;75291;44.670;37.810;2024-01-10T07:43:36;2.14;47.16
75987;DHT22;75291;44.670;37.810;2024-01-10T07:44:40;2.14;48.95
75987;DHT22;75291;44.670;37.810;2024-01-10T07:45:44;2.20;48.30
75987;DHT22;75291;44.670;37.810;2024-01-10T07:46:48;2.11;48.50
75987;DHT22;75291;44.670;37.810;2024-01-10T07:47:53;2.11;47.46
75987;DHT22;75291;44.670;37.810;2024-01-10T07:48:57;2.15;49.44
75987;DHT22;75291;44.670;37.810;2024-01-10T07:50:01;2.22;48.18
75987;DHT22;75291;44.670;37.810;2024-01-10T07:51:05;2.29;47.05
75987;DHT22;75291;44.670;37.810;2024-01-10T07:52:09;2.30;47.55
75987;DHT22;75291;44.670;37.810;2024-01-10T07:53:12;2.38;49.99
75987;DHT22;75291;44.670;37.810;2024-01-10T07:54:21;2.53;48.09
75987;DHT22;75291;44.670;37.810;2024-01-10T07:55:25;2.56;48.02
75987;DHT22;75291;44.670;37.810;2024-01-10T07:56:30;2.60;47.20
75987;DHT22;75291;44.670;37.810;2024-01-10T07:57:33;2.62;46.29
75987;DHT22;75291;44.670;37.810;2024-01-10T07:58:37;2.66;47.56
75987;DHT22;75291;44.670;37.810;2024-01-10T07:59:41;2.73;46.49
75987;DHT22;75291;44.670;37.810;2024-01-10T08:00:44;2.71;46.06
75987;DHT22;75291;44.670;37.810;2024-01-10T08:02:00;2.85;45.37
75987;DHT22;75291;44.670;37.810;2024-01-10T08:03:03;2.94;45.41
75987;DHT22;75291;44.670;37.810;2024-01-10T08:04:07;2.96;46.53